Aeroporto :
LOGIN :

Iscrizione | Disclaimer

   EN    FR    IT 

 










Sommario :    VFR   VFR Marginale   IFR   IFR Intensivo   IFR Molto Intensivo
Visibilità : 
Base nubi : 
>= 8 km
>= 3000ft
5 / 8 km
1000 / 3000 ft
1500m / 5 km
500 / 1000 ft
800 / 1500m
200 / 500 ft
< 800m
< 200 ft
Simboli :   Temporali  Nebbia  Neve Forte  Precipitazioni Forti  Vento > 20 kt
SIGMETs :   Varie  Temporali  Ghiacco  Turbolenza  Onda orograficha  Ceneri Vulcaniche






- Altitudine del aeroporto : 266 ft
- Codice IATA : NCL


EGNT - Newcastle

ULTIMO METAR :
  • 010120Z AUTO VRB03KT 9999 OVC048/// 05/02 Q1026

METARs OBSOLETI :
  • 010050Z AUTO 23004KT 9999 NCD 05/02 Q1027
  • 010020Z AUTO 23004KT 9999 OVC049/// 05/02 Q1027
  • 312350Z AUTO 24004KT 9999 BKN048/// 06/02 Q1027
  • 312320Z AUTO VRB02KT 9999 NCD 05/01 Q1028
  • 312250Z AUTO 25004KT 9999 NCD 06/01 Q1028

TAF TAF EGNT
Valido dal 01 a 00 ore il 02 a 00 ore UTC


312303Z 0100/0124 VRB03KT 9999 BKN030
ATIS : +44 191 214 3400



MetMap, La meteo Aeronautica in un colpo d'occhio ! - Copyright ORBIFLY Dicembre 2007 - Disclaimer

ORBIFLY MET'MAP TEAM :

Programmazione e sviluppo : Alexandra Zaïnal
Concezione : Baudouin d'Aumeries
Aiuto per la programmazione : Marc-Olivier Méhu
Supporto tecnico e logistico : Manuel Goepfert
Aiuto per la traduzione : Arnaldo La Scala

Contatto : metmap@orbifly.com




FONTI E CREDITI :

   NOAA